createdAt,value
2023-04-06T00:00:15.697Z,2.20
2023-04-06T00:02:42.405Z,2.50
2023-04-06T00:05:09.458Z,2.50
2023-04-06T00:07:36.438Z,2.70
2023-04-06T00:10:04.388Z,2.40
2023-04-06T00:12:31.187Z,2.40
2023-04-06T00:14:57.928Z,2.40
2023-04-06T00:17:24.884Z,2.40
2023-04-06T00:19:51.896Z,2.40
2023-04-06T00:22:18.750Z,2.40
2023-04-06T00:24:45.511Z,2.30
2023-04-06T00:27:12.247Z,2.30
2023-04-06T00:29:39.717Z,2.30
2023-04-06T00:32:06.665Z,2.30
2023-04-06T00:34:33.548Z,2.30
2023-04-06T00:37:00.465Z,2.90
2023-04-06T00:39:27.253Z,2.20
2023-04-06T00:41:54.882Z,2.70
2023-04-06T00:44:23.282Z,2.10
2023-04-06T00:46:51.256Z,2.10
2023-04-06T00:49:18.127Z,2.10
2023-04-06T00:51:45.025Z,2.10
2023-04-06T00:54:12.022Z,1.80
2023-04-06T00:56:38.862Z,1.90
2023-04-06T00:59:05.787Z,2.00
2023-04-06T01:01:33.528Z,2.00
2023-04-06T01:04:00.620Z,2.00
2023-04-06T01:06:27.382Z,1.90
2023-04-06T01:08:54.170Z,1.90
2023-04-06T01:11:21.049Z,1.80
2023-04-06T01:13:48.011Z,1.80
2023-04-06T01:16:15.018Z,1.80
2023-04-06T01:18:43.228Z,1.80
2023-04-06T01:21:16.384Z,1.70
2023-04-06T01:23:46.651Z,1.70
2023-04-06T01:26:14.490Z,1.70
2023-04-06T01:28:41.420Z,1.70
2023-04-06T01:31:09.796Z,1.60
2023-04-06T01:33:36.816Z,1.60
2023-04-06T01:36:04.825Z,1.60
2023-04-06T01:38:31.840Z,1.50
2023-04-06T01:40:58.597Z,1.60
2023-04-06T01:43:25.552Z,1.50
2023-04-06T01:45:52.315Z,1.50
2023-04-06T01:48:19.454Z,1.40
2023-04-06T01:50:46.427Z,1.40
2023-04-06T01:53:13.284Z,1.40
2023-04-06T01:55:40.077Z,1.40
2023-04-06T01:58:09.567Z,1.40
2023-04-06T02:00:36.344Z,1.30
2023-04-06T02:03:03.316Z,1.30
2023-04-06T02:05:31.924Z,1.30
2023-04-06T02:07:58.652Z,1.30
2023-04-06T02:10:25.758Z,1.30
2023-04-06T02:12:54.845Z,1.30
2023-04-06T02:15:21.648Z,1.30
2023-04-06T02:17:48.384Z,1.20
2023-04-06T02:20:15.254Z,1.20
2023-04-06T02:22:41.979Z,1.20
2023-04-06T02:25:09.035Z,1.20
2023-04-06T02:27:36.481Z,1.20
2023-04-06T02:30:06.632Z,1.20
2023-04-06T02:32:33.337Z,1.20
2023-04-06T02:35:03.709Z,1.20
2023-04-06T02:37:30.428Z,1.20
2023-04-06T02:39:57.380Z,1.20
2023-04-06T02:42:24.140Z,1.10
2023-04-06T02:44:51.165Z,1.20
2023-04-06T02:47:17.913Z,1.10
2023-04-06T02:49:45.485Z,1.20
2023-04-06T02:52:13.300Z,1.20
2023-04-06T02:54:40.448Z,1.20
2023-04-06T02:57:08.810Z,1.10
2023-04-06T02:59:35.667Z,1.10
2023-04-06T03:02:02.433Z,1.10
2023-04-06T03:04:29.196Z,1.10
2023-04-06T03:06:56.354Z,1.00
2023-04-06T03:09:23.481Z,1.10
2023-04-06T03:11:50.294Z,1.20
2023-04-06T03:14:22.541Z,1.10
2023-04-06T03:16:49.917Z,1.10
2023-04-06T03:19:16.735Z,1.10
2023-04-06T03:21:43.424Z,1.10
2023-04-06T03:24:10.160Z,1.10
2023-04-06T03:26:37.048Z,1.10
2023-04-06T03:29:03.839Z,1.10
2023-04-06T03:31:31.760Z,1.10
2023-04-06T03:33:58.600Z,1.10
2023-04-06T03:36:26.407Z,1.10
2023-04-06T03:38:54.561Z,1.10
2023-04-06T03:41:21.951Z,1.10
2023-04-06T03:43:48.803Z,1.20
2023-04-06T03:46:15.633Z,1.20
2023-04-06T03:48:42.359Z,1.20
2023-04-06T03:51:09.250Z,1.20
2023-04-06T03:53:38.115Z,1.20
2023-04-06T03:56:05.329Z,1.50
2023-04-06T03:58:32.499Z,1.20
2023-04-06T04:00:59.292Z,1.30
2023-04-06T04:03:28.804Z,1.30
2023-04-06T04:05:58.963Z,1.30
2023-04-06T04:08:26.156Z,1.30
2023-04-06T04:10:53.039Z,1.40
2023-04-06T04:13:20.090Z,1.40
2023-04-06T04:15:48.509Z,1.40
2023-04-06T04:18:15.368Z,1.40
2023-04-06T04:20:44.942Z,1.80
2023-04-06T04:23:13.694Z,1.50
2023-04-06T04:25:40.416Z,1.50
2023-04-06T04:28:07.138Z,1.60
2023-04-06T04:30:34.023Z,1.60
2023-04-06T04:33:01.229Z,1.60
2023-04-06T04:35:28.372Z,1.60
2023-04-06T04:37:55.429Z,1.50
2023-04-06T04:40:22.518Z,1.70
2023-04-06T04:42:52.127Z,1.70
2023-04-06T04:45:18.886Z,1.70
2023-04-06T04:47:45.775Z,2.10
2023-04-06T04:50:12.567Z,1.80
2023-04-06T04:52:39.356Z,1.80
2023-04-06T04:55:06.702Z,1.80
2023-04-06T04:57:33.411Z,1.90
2023-04-06T05:00:00.220Z,1.90
2023-04-06T05:02:27.218Z,2.10
2023-04-06T05:04:53.966Z,2.10
2023-04-06T05:07:21.885Z,2.00
2023-04-06T05:09:48.946Z,2.10
2023-04-06T05:12:15.850Z,2.10
2023-04-06T05:14:42.873Z,2.30
2023-04-06T05:17:09.844Z,1.70
2023-04-06T05:19:36.852Z,2.50
2023-04-06T05:22:03.521Z,2.40
2023-04-06T05:24:30.803Z,1.50
2023-04-06T05:27:00.493Z,2.50
2023-04-06T05:29:27.214Z,2.60
2023-04-06T05:31:54.156Z,2.70
2023-04-06T05:34:20.837Z,2.70
2023-04-06T05:36:47.555Z,2.50
2023-04-06T05:39:14.524Z,2.90
2023-04-06T05:41:41.591Z,3.00
2023-04-06T05:44:08.326Z,3.00
2023-04-06T05:46:35.205Z,3.10
2023-04-06T05:49:02.101Z,3.20
2023-04-06T05:51:28.891Z,3.30
2023-04-06T05:53:55.724Z,3.30
2023-04-06T05:56:22.478Z,3.60
2023-04-06T05:58:49.235Z,3.60
2023-04-06T06:01:16.654Z,3.70
2023-04-06T06:03:43.447Z,3.90
2023-04-06T06:06:10.386Z,3.90
2023-04-06T06:08:37.327Z,4.60
2023-04-06T06:11:04.334Z,4.10
2023-04-06T06:13:31.231Z,4.40
2023-04-06T06:15:58.546Z,4.30
2023-04-06T06:18:25.372Z,4.40
2023-04-06T06:20:52.148Z,4.40
2023-04-06T06:23:18.946Z,4.50
2023-04-06T06:25:45.680Z,4.50
2023-04-06T06:28:12.417Z,4.60
2023-04-06T06:30:39.117Z,4.60
2023-04-06T06:33:05.980Z,4.60
2023-04-06T06:35:32.812Z,4.70
2023-04-06T06:37:59.635Z,5.40
2023-04-06T06:40:27.201Z,5.00
2023-04-06T06:42:54.091Z,5.30
2023-04-06T06:45:21.309Z,5.40
2023-04-06T06:47:48.462Z,5.70
2023-04-06T06:50:15.236Z,6.30
2023-04-06T06:52:43.105Z,6.10
2023-04-06T06:55:11.614Z,6.40
2023-04-06T06:57:39.337Z,6.70
2023-04-06T07:00:08.885Z,7.10
2023-04-06T07:02:36.957Z,7.30
2023-04-06T07:05:10.147Z,7.40
2023-04-06T07:07:43.372Z,7.50
2023-04-06T07:10:10.967Z,7.70
2023-04-06T07:12:37.781Z,7.90
2023-04-06T07:15:04.921Z,8.30
2023-04-06T07:17:31.719Z,8.90
2023-04-06T07:19:58.658Z,9.40
2023-04-06T07:22:25.716Z,9.70
2023-04-06T07:24:52.451Z,10.10
2023-04-06T07:27:19.865Z,10.60
2023-04-06T07:29:46.638Z,10.80
2023-04-06T07:32:13.391Z,10.90
2023-04-06T07:34:40.402Z,10.80
2023-04-06T07:37:07.181Z,10.70
2023-04-06T07:39:33.875Z,10.80
2023-04-06T07:42:01.007Z,10.70
2023-04-06T07:44:27.894Z,10.80
2023-04-06T07:46:54.669Z,11.00
2023-04-06T07:49:21.938Z,11.10
2023-04-06T07:51:48.710Z,11.10
2023-04-06T07:54:15.610Z,11.10
2023-04-06T07:56:42.377Z,11.00
2023-04-06T07:59:09.439Z,10.80
2023-04-06T08:01:36.232Z,10.70
2023-04-06T08:04:03.563Z,10.70
2023-04-06T08:06:30.610Z,10.70
2023-04-06T08:08:57.605Z,10.70
2023-04-06T08:11:24.303Z,10.80
2023-04-06T08:13:51.438Z,10.90
2023-04-06T08:16:18.426Z,11.00
2023-04-06T08:18:45.347Z,11.30
2023-04-06T08:21:12.142Z,11.50
2023-04-06T08:23:38.883Z,12.00
2023-04-06T08:26:05.712Z,12.30
2023-04-06T08:28:32.548Z,12.50
2023-04-06T08:30:59.316Z,12.50
2023-04-06T08:33:26.309Z,12.40
2023-04-06T08:35:53.095Z,12.30
2023-04-06T08:38:19.809Z,12.10
2023-04-06T08:40:48.943Z,12.00
2023-04-06T08:43:17.906Z,11.80
2023-04-06T08:45:55.017Z,11.60
2023-04-06T08:48:22.381Z,11.60
2023-04-06T08:50:49.317Z,11.50
2023-04-06T08:53:17.399Z,11.50
2023-04-06T08:55:45.276Z,11.60
2023-04-06T08:58:12.158Z,11.50
2023-04-06T09:00:40.345Z,11.40
2023-04-06T09:03:08.462Z,11.50
2023-04-06T09:05:36.056Z,11.40
2023-04-06T09:08:03.226Z,11.40
2023-04-06T09:10:30.924Z,11.60
2023-04-06T09:13:07.675Z,11.40
2023-04-06T09:15:34.996Z,11.70
2023-04-06T09:18:02.254Z,11.90
2023-04-06T09:20:32.082Z,11.90
2023-04-06T09:22:58.977Z,12.10
2023-04-06T09:25:29.255Z,12.20
2023-04-06T09:28:04.408Z,12.40
2023-04-06T09:30:31.900Z,12.50
2023-04-06T09:33:00.489Z,12.60
2023-04-06T09:35:28.532Z,12.90
2023-04-06T09:37:56.328Z,13.10
2023-04-06T09:40:23.379Z,13.40
2023-04-06T09:42:53.706Z,13.50
2023-04-06T09:45:21.833Z,13.60
2023-04-06T09:47:49.469Z,13.90
2023-04-06T09:50:17.454Z,14.10
2023-04-06T09:52:51.956Z,14.30
2023-04-06T09:55:26.155Z,14.30
2023-04-06T09:58:05.304Z,14.70
2023-04-06T10:00:35.826Z,14.80
2023-04-06T10:03:17.419Z,14.90
2023-04-06T10:05:51.261Z,15.00
2023-04-06T10:08:20.435Z,15.10
2023-04-06T10:10:47.843Z,15.00
2023-04-06T10:13:14.618Z,15.00
2023-04-06T10:15:42.726Z,15.00
2023-04-06T10:18:09.953Z,14.80
2023-04-06T10:20:51.296Z,14.90
2023-04-06T10:23:30.687Z,14.90
2023-04-06T10:25:59.085Z,14.90
2023-04-06T10:28:27.163Z,14.70
2023-04-06T10:31:02.298Z,14.80
2023-04-06T10:33:29.638Z,14.90
2023-04-06T10:35:56.945Z,14.80
2023-04-06T10:38:44.209Z,14.70
2023-04-06T10:41:12.847Z,14.80
2023-04-06T10:43:41.529Z,14.70
2023-04-06T10:46:11.154Z,14.60
2023-04-06T10:48:46.629Z,14.50
2023-04-06T10:51:17.389Z,14.30
2023-04-06T10:53:46.706Z,14.20
2023-04-06T10:56:16.622Z,14.10
2023-04-06T10:58:52.165Z,14.10
2023-04-06T11:01:23.140Z,14.10
2023-04-06T11:04:00.340Z,14.10
2023-04-06T11:06:32.434Z,14.10
2023-04-06T11:08:59.895Z,14.10
2023-04-06T11:11:28.013Z,14.00
2023-04-06T11:13:57.922Z,14.00
2023-04-06T11:16:34.532Z,13.90
2023-04-06T11:19:03.652Z,13.70
2023-04-06T11:21:41.029Z,13.40
2023-04-06T11:24:24.876Z,13.40
2023-04-06T11:27:01.430Z,13.20
2023-04-06T11:29:31.582Z,13.20
2023-04-06T11:32:04.718Z,13.10
2023-04-06T11:34:34.244Z,13.10
2023-04-06T11:37:03.698Z,13.10
2023-04-06T11:39:31.280Z,13.20
2023-04-06T11:42:08.964Z,13.30
2023-04-06T11:44:50.228Z,13.20
2023-04-06T11:47:17.114Z,13.20
2023-04-06T11:49:48.634Z,13.00
2023-04-06T11:52:26.209Z,12.90
2023-04-06T11:54:55.137Z,13.00
2023-04-06T11:57:26.744Z,13.10
2023-04-06T11:59:53.701Z,13.10
2023-04-06T12:02:20.513Z,13.20
2023-04-06T12:04:47.636Z,13.20
2023-04-06T12:07:14.515Z,13.10
2023-04-06T12:09:41.353Z,13.10
2023-04-06T12:12:08.126Z,13.10
2023-04-06T12:14:34.823Z,13.00
2023-04-06T12:17:01.699Z,13.10
2023-04-06T12:19:29.930Z,13.30
2023-04-06T12:21:58.575Z,13.20
2023-04-06T12:24:25.520Z,13.30
2023-04-06T12:26:59.533Z,13.20
2023-04-06T12:29:30.388Z,13.20
2023-04-06T12:31:57.331Z,13.20
2023-04-06T12:34:24.104Z,13.20
2023-04-06T12:36:51.214Z,13.20
2023-04-06T12:39:21.642Z,12.90
2023-04-06T12:41:48.641Z,12.80
2023-04-06T12:44:15.676Z,12.60
2023-04-06T12:46:44.254Z,12.40
2023-04-06T12:49:11.327Z,12.10
2023-04-06T12:51:38.156Z,12.10
2023-04-06T12:54:05.049Z,12.20
2023-04-06T12:56:32.236Z,12.00
2023-04-06T12:58:59.096Z,12.10
2023-04-06T13:01:27.661Z,11.90
2023-04-06T13:03:54.526Z,12.10
2023-04-06T13:06:21.415Z,12.00
2023-04-06T13:08:51.233Z,12.10
2023-04-06T13:11:18.247Z,12.00
2023-04-06T13:13:44.961Z,11.90
2023-04-06T13:16:11.703Z,11.90
2023-04-06T13:18:40.124Z,11.80
2023-04-06T13:21:07.663Z,11.90
2023-04-06T13:23:35.950Z,11.80
2023-04-06T13:26:07.212Z,11.70
2023-04-06T13:28:35.870Z,11.70
2023-04-06T13:31:03.512Z,11.60
2023-04-06T13:33:31.727Z,11.40
2023-04-06T13:35:59.706Z,11.40
2023-04-06T13:38:26.592Z,11.30
2023-04-06T13:40:53.459Z,11.00
2023-04-06T13:43:23.335Z,11.10
2023-04-06T13:45:59.161Z,11.00
2023-04-06T13:48:27.078Z,11.00
2023-04-06T13:50:53.838Z,11.00
2023-04-06T13:53:20.732Z,11.00
2023-04-06T13:55:57.340Z,11.00
2023-04-06T13:58:24.496Z,10.80
2023-04-06T14:00:51.967Z,10.90
2023-04-06T14:03:19.305Z,10.70
2023-04-06T14:05:46.539Z,10.80
2023-04-06T14:08:13.373Z,10.60
2023-04-06T14:10:43.757Z,10.60
2023-04-06T14:13:10.754Z,10.50
2023-04-06T14:15:38.507Z,10.50
2023-04-06T14:18:05.408Z,10.40
2023-04-06T14:20:33.617Z,10.40
2023-04-06T14:23:04.405Z,10.30
2023-04-06T14:25:33.176Z,10.30
2023-04-06T14:28:00.420Z,10.10
2023-04-06T14:30:28.948Z,10.10
2023-04-06T14:32:59.256Z,10.00
2023-04-06T14:35:26.451Z,10.00
2023-04-06T14:37:53.528Z,10.10
2023-04-06T14:40:20.572Z,10.00
2023-04-06T14:42:47.577Z,9.90
2023-04-06T14:45:14.418Z,10.00
2023-04-06T14:47:41.158Z,9.80
2023-04-06T14:50:08.418Z,9.70
2023-04-06T14:52:35.882Z,9.70
2023-04-06T14:55:02.715Z,9.70
2023-04-06T14:57:29.436Z,9.60
2023-04-06T14:59:56.521Z,9.80
2023-04-06T15:02:23.616Z,9.60
2023-04-06T15:04:53.239Z,9.60
2023-04-06T15:07:20.907Z,9.60
2023-04-06T15:09:47.670Z,9.50
2023-04-06T15:12:14.993Z,9.60
2023-04-06T15:14:41.777Z,9.60
2023-04-06T15:17:08.823Z,9.50
2023-04-06T15:19:35.954Z,9.40
2023-04-06T15:22:02.684Z,9.40
2023-04-06T15:24:29.412Z,9.40
2023-04-06T15:26:56.849Z,9.30
2023-04-06T15:29:23.709Z,9.40
2023-04-06T15:31:50.529Z,9.50
2023-04-06T15:34:17.315Z,9.30
2023-04-06T15:36:44.696Z,9.30
2023-04-06T15:39:11.449Z,9.60
2023-04-06T15:41:38.519Z,9.30
2023-04-06T15:44:05.576Z,9.30
2023-04-06T15:46:32.393Z,9.30
2023-04-06T15:48:59.206Z,9.30
2023-04-06T15:51:27.538Z,9.20
2023-04-06T15:53:54.258Z,9.20
2023-04-06T15:56:21.026Z,9.10
2023-04-06T15:58:48.505Z,9.10
2023-04-06T16:01:17.018Z,9.00
2023-04-06T16:03:44.134Z,9.00
2023-04-06T16:06:11.479Z,9.00
2023-04-06T16:08:39.108Z,8.90
2023-04-06T16:11:05.912Z,9.00
2023-04-06T16:13:33.131Z,9.00
2023-04-06T16:16:00.029Z,8.90
2023-04-06T16:18:27.366Z,9.00
2023-04-06T16:20:56.992Z,8.70
2023-04-06T16:23:24.138Z,8.70
2023-04-06T16:25:50.993Z,8.70
2023-04-06T16:28:17.794Z,8.70
2023-04-06T16:30:46.651Z,8.70
2023-04-06T16:33:14.050Z,8.70
2023-04-06T16:35:48.326Z,8.70
2023-04-06T16:38:16.147Z,8.70
2023-04-06T16:40:43.125Z,8.70
2023-04-06T16:43:14.016Z,8.80
2023-04-06T16:45:41.278Z,8.60
2023-04-06T16:48:08.549Z,8.60
2023-04-06T16:50:36.492Z,8.50
2023-04-06T16:53:03.473Z,8.80
2023-04-06T16:55:30.392Z,8.50
2023-04-06T16:57:57.515Z,8.50
2023-04-06T17:00:24.718Z,8.50
2023-04-06T17:02:51.682Z,8.40
2023-04-06T17:05:24.737Z,8.50
2023-04-06T17:07:52.047Z,8.40
2023-04-06T17:10:24.057Z,8.50
2023-04-06T17:13:00.680Z,8.50
2023-04-06T17:15:31.926Z,8.40
2023-04-06T17:18:02.424Z,8.40
2023-04-06T17:20:29.554Z,8.40
2023-04-06T17:22:56.525Z,8.40
2023-04-06T17:25:23.639Z,8.30
2023-04-06T17:27:51.927Z,8.20
2023-04-06T17:30:18.817Z,8.20
2023-04-06T17:32:46.453Z,8.20
2023-04-06T17:35:13.383Z,8.20
2023-04-06T17:37:40.716Z,8.10
2023-04-06T17:40:08.430Z,8.20
2023-04-06T17:42:35.454Z,8.20
2023-04-06T17:45:02.268Z,8.30
2023-04-06T17:47:32.191Z,8.40
2023-04-06T17:50:00.820Z,8.30
2023-04-06T17:52:31.887Z,8.30
2023-04-06T17:55:04.632Z,8.20
2023-04-06T17:57:34.064Z,8.50
2023-04-06T18:00:01.257Z,8.40
2023-04-06T18:02:28.162Z,8.30
2023-04-06T18:04:56.499Z,8.50
2023-04-06T18:07:23.440Z,8.50
2023-04-06T18:09:50.492Z,7.80
2023-04-06T18:12:17.409Z,8.20
2023-04-06T18:14:47.441Z,8.40
2023-04-06T18:17:14.809Z,8.40
2023-04-06T18:19:41.579Z,8.30
2023-04-06T18:22:08.358Z,8.30
2023-04-06T18:24:42.233Z,8.30
2023-04-06T18:27:11.195Z,8.50
2023-04-06T18:29:37.996Z,8.40
2023-04-06T18:32:06.201Z,8.40
2023-04-06T18:34:33.516Z,8.30
2023-04-06T18:37:01.705Z,8.40
2023-04-06T18:39:28.915Z,8.40
2023-04-06T18:41:58.651Z,8.30
2023-04-06T18:44:25.943Z,8.30
2023-04-06T18:46:54.994Z,8.30
2023-04-06T18:49:25.349Z,8.20
2023-04-06T18:51:53.784Z,8.20
2023-04-06T18:54:20.806Z,8.20
2023-04-06T18:56:49.274Z,8.20
2023-04-06T18:59:17.406Z,8.30
2023-04-06T19:01:46.896Z,8.30
2023-04-06T19:04:14.045Z,8.40
2023-04-06T19:06:41.208Z,8.20
2023-04-06T19:09:08.297Z,8.20
2023-04-06T19:11:36.591Z,8.20
2023-04-06T19:14:03.532Z,8.20
2023-04-06T19:16:30.299Z,8.30
2023-04-06T19:18:57.543Z,8.20
2023-04-06T19:21:26.429Z,8.30
2023-04-06T19:23:55.617Z,8.20
2023-04-06T19:26:24.113Z,8.20
2023-04-06T19:28:51.373Z,8.30
2023-04-06T19:31:18.850Z,8.20
2023-04-06T19:33:46.869Z,8.40
2023-04-06T19:36:14.325Z,8.40
2023-04-06T19:38:42.047Z,8.30
2023-04-06T19:41:09.283Z,8.30
2023-04-06T19:43:36.206Z,8.30
2023-04-06T19:46:04.501Z,8.30
2023-04-06T19:48:33.772Z,8.30
2023-04-06T19:51:00.886Z,8.30
2023-04-06T19:53:29.872Z,8.30
2023-04-06T19:56:00.944Z,8.30
2023-04-06T19:58:28.784Z,8.40
2023-04-06T20:00:55.524Z,8.30
2023-04-06T20:03:22.419Z,8.30
2023-04-06T20:05:49.377Z,8.30
2023-04-06T20:08:16.136Z,8.40
2023-04-06T20:10:43.064Z,8.40
2023-04-06T20:13:09.940Z,8.50
2023-04-06T20:15:36.815Z,8.40
2023-04-06T20:18:03.701Z,8.40
2023-04-06T20:20:30.999Z,8.40
2023-04-06T20:22:57.820Z,8.40
2023-04-06T20:25:25.733Z,8.40
2023-04-06T20:27:54.070Z,8.40
2023-04-06T20:30:21.096Z,8.40
2023-04-06T20:32:47.951Z,8.40
2023-04-06T20:35:14.830Z,8.40
2023-04-06T20:37:43.113Z,8.40
2023-04-06T20:40:12.207Z,8.40
2023-04-06T20:42:39.288Z,8.40
2023-04-06T20:45:08.083Z,8.40
2023-04-06T20:47:35.830Z,8.40
2023-04-06T20:50:02.686Z,8.50
2023-04-06T20:52:29.859Z,8.40
2023-04-06T20:54:57.729Z,8.40
2023-04-06T20:57:25.734Z,8.40
2023-04-06T20:59:52.697Z,8.40
2023-04-06T21:02:19.657Z,8.40
2023-04-06T21:04:47.701Z,8.40
2023-04-06T21:07:14.549Z,8.60
2023-04-06T21:09:41.604Z,8.50
2023-04-06T21:12:08.485Z,8.40
2023-04-06T21:14:35.490Z,8.50
2023-04-06T21:17:02.689Z,8.60
2023-04-06T21:19:29.573Z,8.50
2023-04-06T21:21:56.705Z,8.50
2023-04-06T21:24:23.552Z,8.50
2023-04-06T21:26:50.504Z,8.50
2023-04-06T21:29:17.359Z,8.50
2023-04-06T21:31:44.380Z,8.50
2023-04-06T21:34:14.462Z,8.60
2023-04-06T21:36:41.694Z,8.40
2023-04-06T21:39:11.099Z,8.40
2023-04-06T21:41:37.936Z,8.40
2023-04-06T21:44:04.781Z,8.50
2023-04-06T21:46:32.410Z,8.50
2023-04-06T21:48:59.577Z,8.50
2023-04-06T21:51:26.473Z,8.50
2023-04-06T21:53:53.788Z,8.50
2023-04-06T21:56:25.424Z,8.50
2023-04-06T21:58:53.286Z,8.60
2023-04-06T22:01:20.842Z,8.60
2023-04-06T22:03:50.774Z,8.60
2023-04-06T22:06:17.902Z,8.60
2023-04-06T22:08:48.230Z,8.70
2023-04-06T22:11:15.185Z,8.70
2023-04-06T22:13:42.034Z,8.50
2023-04-06T22:16:08.903Z,8.60
2023-04-06T22:18:38.690Z,8.70
2023-04-06T22:21:06.071Z,8.70
2023-04-06T22:23:33.228Z,8.70
2023-04-06T22:26:00.138Z,8.70
2023-04-06T22:28:27.212Z,8.70
2023-04-06T22:30:53.986Z,8.80
2023-04-06T22:33:22.121Z,8.70
2023-04-06T22:35:48.948Z,8.70
2023-04-06T22:38:15.799Z,8.80
2023-04-06T22:40:45.474Z,8.80
2023-04-06T22:43:12.298Z,8.80
2023-04-06T22:45:39.125Z,8.80
2023-04-06T22:48:06.067Z,8.80
2023-04-06T22:50:33.005Z,8.90
2023-04-06T22:52:59.756Z,8.90
2023-04-06T22:55:26.504Z,8.80
2023-04-06T22:57:53.377Z,8.90
2023-04-06T23:00:20.454Z,8.90
2023-04-06T23:02:47.347Z,8.90
2023-04-06T23:05:14.431Z,8.90
2023-04-06T23:07:41.708Z,8.90
2023-04-06T23:10:08.867Z,8.90
2023-04-06T23:12:35.674Z,8.90
2023-04-06T23:15:02.417Z,8.90
2023-04-06T23:17:29.110Z,8.90
2023-04-06T23:19:55.818Z,8.90
2023-04-06T23:22:22.673Z,8.90
2023-04-06T23:24:50.113Z,9.00
2023-04-06T23:27:16.941Z,9.00
2023-04-06T23:29:43.687Z,9.00
2023-04-06T23:32:10.940Z,9.00
2023-04-06T23:34:37.751Z,9.00
2023-04-06T23:37:04.644Z,9.00
2023-04-06T23:39:31.820Z,9.10
2023-04-06T23:41:58.498Z,9.00
2023-04-06T23:44:28.771Z,9.00
2023-04-06T23:46:55.495Z,9.00
2023-04-06T23:49:22.265Z,9.10
2023-04-06T23:51:48.959Z,9.10
2023-04-06T23:54:18.513Z,9.10
2023-04-06T23:56:46.396Z,9.10
2023-04-06T23:59:13.128Z,9.10
